Terminal Aerodrome Forecast
Issued by NWS

Home | Current Version | Previous Version | Text Only | Print | Product List | Glossary Off
Versions: 1 2 3 4 5 6 7 8 9 10 11 12

351
FTUS42 KMHX 212346
TAFISO
TAF
KISO 212346Z 2200/2224 VRB04KT P6SM VCSH BKN060
     FM220400 00000KT P6SM -SHRA OVC040
     FM220900 00000KT 5SM -SHRA SCT007 OVC010
     FM221100 00000KT 3SM BR SCT007 OVC010
     FM221300 33006KT P6SM BKN010
     FM221500 33009KT P6SM FEW025
      AMD LTD TO CLD VIS AND WIND=

USA.gov is the U.S. government's official web portal to all federal, state and local government web resources and services.